Flight Track Log - Related Links

Times and Time Zones

All times are in EDT time to prevent confusion due to time zone crossing. See the UAL4695 flight status page for this flight to view local times or setup timezone preferences in your user account.

Time Position Orientation Groundspeed Altitude Reporting Facility
EDT Latitude Longitude Course Direction KTS MPH feet Rate Location/Type
Tue 11:24:16 PM 40.7500 -74.1167 27° Northeast 210 242 3,800  Level New York TRACON
Tue 11:25:00 PM 40.8899 -73.9384 21° North  Level FlightAware Approximate
Tue 11:25:22 PM 40.8167 -74.0667 30° Northeast 249 287 6,000  Level New York TRACON
Tue 11:26:00 PM 40.9554 -73.8612 37° Northeast  Level FlightAware Approximate
Tue 11:26:22 PM 40.8667 -74.0000 45° Northeast 257 296 9,300  Level New York TRACON
Tue 11:27:00 PM 41.0283 -73.7849 40° Northeast  Level FlightAware Approximate
Tue 11:27:16 PM 40.9167 -73.9500 37° Northeast 277 319 11,600  Level New York TRACON
Tue 11:28:00 PM 41.0991 -73.7052 40° Northeast  Level FlightAware Approximate
Tue 11:28:51 PM 41.0142 -73.8458 39° Northeast 322 371 13,900  Level Boston Center
Tue 11:29:00 PM 41.1719 -73.6410 27° Northeast  Level FlightAware Approximate
Tue 11:29:51 PM 41.1028 -73.7539 38° Northeast 352 405 15,000  Level Boston Center
Tue 11:30:51 PM 41.2017 -73.6706 32° Northeast 375 432 16,200 1,000 Climbing Boston Center
Tue 11:31:51 PM 41.2858 -73.5975 33° Northeast 391 450 17,000 397 Climbing Boston Center
Tue 11:32:52 PM 41.3886 -73.5108 32° Northeast 397 457 17,000  Level Boston Center
Tue 11:33:52 PM 41.4728 -73.4375 33° Northeast 397 457 17,000  Level Boston Center
Tue 11:34:51 PM 41.5756 -73.3531 32° Northeast 397 457 17,000  Level Boston Center
Tue 11:35:52 PM 41.6719 -73.2739 32° Northeast 397 457 17,000  Level Boston Center
Tue 11:36:51 PM 41.7664 -73.1917 33° Northeast 397 457 17,000  Level Boston Center
Tue 11:37:52 PM 41.8586 -73.1119 33° Northeast 392 451 17,000  Level Boston Center
Tue 11:38:52 PM 41.9508 -73.0347 32° Northeast 392 451 17,000  Level Boston Center
Tue 11:39:52 PM 42.0428 -72.9544 33° Northeast 392 451 17,000  Level Boston Center
Tue 11:40:51 PM 42.1267 -72.8794 34° Northeast 397 457 17,000  Level Boston Center
Tue 11:41:52 PM 42.2311 -72.7878 33° Northeast 397 457 17,000  Level Boston Center
Tue 11:42:51 PM 42.3147 -72.7153 33° Northeast 398 458 17,000  Level Boston Center
Tue 11:43:51 PM 42.3981 -72.6425 33° Northeast 393 452 17,000  Level Boston Center
Tue 11:44:51 PM 42.4961 -72.5556 33° Northeast 393 452 17,000  Level Boston Center
Tue 11:45:51 PM 42.5775 -72.4881 31° Northeast 370 426 17,000 -198 Level Boston Center
Tue 11:46:52 PM 42.6589 -72.4147 34° Northeast 351 404 16,600 -1,150 Descending Boston Center
Tue 11:47:51 PM 42.7339 -72.3467 34° Northeast 337 388 14,700 -2,118 Descending Boston Center
Tue 11:48:51 PM 42.7942 -72.2450 51° Northeast 309 356 12,400 -2,000 Descending Boston Center
Tue 11:49:51 PM 42.7897 -72.1372 93° East 288 331 10,700 -1,450 Descending Boston Center
Tue 11:50:51 PM 42.7811 -72.0186 96° East 293 337 9,500 -1,050 Descending Boston Center
Tue 11:51:51 PM 42.7722 -71.9253 97° East 281 323 8,600 -1,200 Descending Boston Center
Tue 11:52:51 PM 42.7633 -71.8150 96° East 267 307 7,100 -1,537 Descending Boston Center
Tue 11:53:52 PM 42.7567 -71.7275 96° East 261 300 5,500 -1,450 Descending Boston Center
Tue 11:54:51 PM 42.7497 -71.6344 96° East 231 266 4,200 -958 Descending Boston Center
Tue 11:55:51 PM 42.7408 -71.5694 101° East 204 235 3,600 -550 Descending Boston Center
Tue 11:56:51 PM 42.7342 -71.4875 96° East 198 228 3,100 -250 Descending Boston Center
Tue 11:57:51 PM 42.7250 -71.4225 101° East 198 228 3,100  Level Boston Center
Tue 11:58:51 PM 42.7369 -71.3517 77° East 185 213 3,100 -50 Level Boston Center
Tue 11:59:51 PM 42.7828 -71.3567 355° North 139 160 3,000 -496 Descending Boston Center
Wed 12:00:52 AM 42.8394 -71.3811 342° North 186 214 2,100 -843 Descending Boston Center
Wed 12:01:52 AM 42.8772 -71.4031 337° Northwest 178 205 1,300 -800 Descending Boston Center

Login

Don't have an account? Register now (free) for customized features, flight alerts, and more!